Soaring Guidance
Issued by NWS Reno, NV

Home | Current Version | Previous Version | Text Only | Print | Product List | Glossary On
Versions: 1 2 3 4 5 6 7 8 9 10 11 12 13
000
UXUS97 KREV 041345
SRGREV

SOARING FORECAST
NATIONAL WEATHER SERVICE - RENO NV
700 AM PDT WED MAY 4 2016

THIS SOARING FORECAST IS FOR THE EASTERN SIERRA AND WESTERN NEVADA
WITH SPECIFIC INDICES FOR THE GREATER RENO AREA.

THIS FORECAST IS PREPARED DAILY BY 700 AM AND IS NOT UPDATED.

FOR CURRENT FLIGHT CONDITIONS...FORECASTS...AND ADVISORIES...ACCESS
YOUR LOCAL BRIEFING OUTLET OR FLIGHT SERVICE STATION.

*******************************************************************
FORECASTED LOCAL INDICES FOR RENO:        TODAY     YESTERDAY
FORECASTED MAX TEMP AT RENO (DEG F).....     72          77
FORECASTED TRIGGER TEMPERATURE (DEG F)..     64          63
   EXCEEDED YESTERDAY BY 1055 AM PDT
FORECASTED MAXIMUM ALTITUDE (FT MSL)....  15000       16300
FORECASTED SOARING INDEX (FPM)..........    930        1029
FORECASTED K-INDEX.........VALID 18Z....     21          21
FORECASTED K-INDEX.........VALID 00Z....     24          25
FORECASTED LIFTED INDEX....VALID 18Z....      1           4
FORECASTED LIFTED INDEX....VALID 00Z....      0           3

AFTERNOON WINDS ALOFT FORECAST
MSL (FT) WIND/TEMP
9000  2309/+06
10000 2009/+03
12000 1910/-02
14000 1712/-06
16000 1615/-10
18000 1622/-15
24000 1938/-28
30000 1867/-45
34000 1875/-54
39000 1971/-59

SLIDE MOUNTAIN DATA:
     DATE       TIME     TEMP  DEWPT   RH         WIND (MPH)
                        (F)   (F)           | DIR  SPEED GUST
2016-05-04    04:20      39    24     59    | 210   13   18
2016-05-04    04:00      39    24     58    | 218   13   24
2016-05-04    03:50      39    24     58    | 216   13   18
2016-05-04    03:30      39    24     58    | 215   12   17

RENO TAF FORECAST:
KRNO 041120Z 0412/0512 VRB03KT P6SM FEW100 BKN180
     FM041800 19010KT P6SM BKN100 OVC160
     FM050100 32011G18KT P6SM VCSH BKN070 OVC100
     FM050600 34006KT P6SM -SHRA VCTS BKN050CB OVC070

CARSON CITY TAF FORECAST:
KCXP 041120Z 0412/0512 VRB03KT P6SM FEW090 BKN180
     FM041800 14009KT P6SM BKN090 OVC150
     FM050000 25010G15KT P6SM VCSH BKN060 OVC090
     FM050600 VRB04KT P6SM -SHRA VCTS BKN040CB OVC070

OUTLOOK FOR THE RENO-CARSON CITY-MINDEN AREA:
.THURSDAY...SHOWERS AND ISOLATED THUNDERSTORMS IN THE MORNING...
THEN SHOWERS AND CHANCE OF THUNDERSTORMS IN THE AFTERNOON. HIGHS
60 TO 65. NORTHWEST WINDS UP TO 10 MPH INCREASING TO 10 TO 15 MPH
IN THE AFTERNOON.

SUNRISE AND SUNSET
MAY  4 2016...........SUNRISE   556 AM PDT   SUNSET   756 PM PDT
MAY  5 2016...........SUNRISE   555 AM PDT   SUNSET   757 PM PDT


USA.gov is the U.S. government's official web portal to all federal, state and local government web resources and services.